Time;durP1;ratioP1;P1;durP2;ratioP2;P2;SDS_P1;SDS_P2;PMS_P1;PMS_P2;Temp;Humidity;BMP_temperature;BMP_pressure;BME280_temperature;BME280_humidity;BME280_pressure;Samples;Min_cycle;Max_cycle;Signal;HPM_P1;HPM_P2
2022/05/28 00:01:51;;;;;;;0.90;0.70;;;;;;;17.34;49.13;99108.22;4391685;32;33415;-73
2022/05/28 00:04:19;;;;;;;0.75;0.75;;;;;;;17.05;50.09;99115.53;4393471;32;33885;-72
2022/05/28 00:06:47;;;;;;;1.35;0.90;;;;;;;17.25;49.38;99110.28;4391483;32;35013;-72
2022/05/28 00:09:15;;;;;;;1.50;0.82;;;;;;;17.78;48.31;99121.25;4393413;32;34714;-73
2022/05/28 00:11:44;;;;;;;0.82;0.82;;;;;;;17.33;49.33;99112.62;4392007;32;34473;-73
2022/05/28 00:14:12;;;;;;;1.70;0.93;;;;;;;17.82;47.99;99120.16;4393252;32;34702;-72
2022/05/28 00:16:41;;;;;;;2.83;1.02;;;;;;;17.80;47.57;99111.50;4392079;32;35151;-72
2022/05/28 00:19:10;;;;;;;1.08;0.82;;;;;;;17.66;48.44;99114.72;4393217;32;34653;-73
2022/05/28 00:21:38;;;;;;;1.42;0.90;;;;;;;17.62;48.19;99113.16;4392651;32;34187;-73
2022/05/28 00:24:06;;;;;;;0.90;0.80;;;;;;;17.79;47.90;99096.63;4393184;32;34611;-72
2022/05/28 00:26:34;;;;;;;1.55;1.00;;;;;;;17.51;48.27;99096.97;4391435;32;35019;-73
2022/05/28 00:29:02;;;;;;;2.05;0.90;;;;;;;17.02;49.38;99102.50;4393154;32;34574;-72
2022/05/28 00:31:30;;;;;;;6.45;1.00;;;;;;;17.37;48.42;99105.47;4393096;32;33406;-73
2022/05/28 00:33:58;;;;;;;0.80;0.80;;;;;;;16.96;49.02;99108.87;4392375;32;34897;-72
2022/05/28 00:36:26;;;;;;;0.80;0.70;;;;;;;16.57;49.63;99129.69;4392494;32;35047;-73
2022/05/28 00:38:54;;;;;;;0.82;0.82;;;;;;;17.01;48.58;99132.34;4392078;32;34911;-73
2022/05/28 00:41:22;;;;;;;2.12;1.17;;;;;;;17.45;47.60;99142.81;4393077;32;33401;-73
2022/05/28 00:43:50;;;;;;;1.15;0.88;;;;;;;17.59;47.32;99145.75;4392508;32;34861;-73
2022/05/28 00:46:25;;;;;;;1.02;0.88;;;;;;;16.90;48.86;99155.59;4392884;32;35203;-73
2022/05/28 00:48:57;;;;;;;0.80;0.80;;;;;;;17.18;47.97;99150.94;4378439;32;34122;-73
2022/05/28 00:51:28;;;;;;;1.10;0.88;;;;;;;16.64;49.41;99157.44;4391380;32;32060;-72
2022/05/28 00:53:59;;;;;;;2.17;1.23;;;;;;;16.58;49.30;99149.81;4378748;32;34803;-72
2022/05/28 00:56:28;;;;;;;1.40;0.95;;;;;;;17.13;48.37;99131.84;4391706;32;35134;-72
2022/05/28 00:58:56;;;;;;;3.22;1.05;;;;;;;17.12;48.61;99131.91;4391026;32;34448;-73
2022/05/28 01:01:27;;;;;;;1.73;1.05;;;;;;;16.97;49.08;99130.78;4392745;32;34338;-72
2022/05/28 01:04:23;;;;;;;1.12;1.00;;;;;;;16.83;49.29;99119.03;4392099;32;34820;-73
2022/05/28 01:07:20;;;;;;;1.42;1.10;;;;;;;17.19;48.67;99110.56;4390968;32;34628;-72
2022/05/28 01:10:10;;;;;;;1.60;1.12;;;;;;;17.02;49.54;99106.00;4392646;32;34561;-72
2022/05/28 01:12:57;;;;;;;1.12;0.90;;;;;;;17.04;49.42;99103.28;4390451;32;33445;-72
2022/05/28 01:15:32;;;;;;;1.35;1.00;;;;;;;16.61;50.60;99094.50;4391543;32;34862;-72
2022/05/28 01:18:14;;;;;;;2.20;1.10;;;;;;;16.55;51.06;99085.03;4391116;32;35818;-72
2022/05/28 01:20:50;;;;;;;1.98;1.45;;;;;;;16.59;51.12;99088.41;4394658;32;34347;-72
2022/05/28 01:23:46;;;;;;;1.95;1.67;;;;;;;16.58;51.28;99084.94;4391680;32;33482;-72
2022/05/28 01:26:31;;;;;;;3.83;1.42;;;;;;;16.22;52.46;99074.94;4381274;32;33952;-72
2022/05/28 01:29:03;;;;;;;1.25;1.15;;;;;;;16.25;52.48;99080.09;4393562;32;35943;-72
2022/05/28 01:31:32;;;;;;;1.27;1.10;;;;;;;16.64;51.74;99075.94;4393351;32;34369;-72
2022/05/28 01:34:03;;;;;;;1.55;1.30;;;;;;;16.62;51.82;99075.16;4393691;32;32943;-72
2022/05/28 01:36:33;;;;;;;1.60;1.10;;;;;;;16.77;51.57;99086.84;4392568;32;34851;-72
2022/05/28 01:39:02;;;;;;;1.73;1.20;;;;;;;16.57;51.93;99079.72;4392632;32;35150;-72
2022/05/28 01:41:31;;;;;;;1.10;1.00;;;;;;;16.77;51.99;99082.44;4393540;32;34427;-72
2022/05/28 01:44:00;;;;;;;1.65;1.05;;;;;;;17.15;51.04;99068.66;4380039;32;34224;-77
2022/05/28 01:46:29;;;;;;;1.90;1.10;;;;;;;17.02;50.88;99073.56;4380848;32;33904;-72
2022/05/28 01:48:58;;;;;;;1.58;1.20;;;;;;;16.98;51.26;99085.16;4392245;32;35973;-73
2022/05/28 01:51:32;;;;;;;1.77;1.10;;;;;;;15.99;53.70;99099.44;4380616;32;34316;-73
2022/05/28 01:54:11;;;;;;;2.15;1.00;;;;;;;16.72;52.09;99094.91;4380530;32;33698;-72
2022/05/28 01:56:45;;;;;;;1.17;1.05;;;;;;;16.51;52.77;99090.50;4391848;32;33512;-72
2022/05/28 01:59:16;;;;;;;2.05;1.00;;;;;;;16.49;52.29;99090.56;4392398;32;35007;-72
2022/05/28 02:01:44;;;;;;;1.12;1.00;;;;;;;17.17;51.15;99093.13;4393739;32;35186;-73
2022/05/28 02:04:12;;;;;;;1.42;1.12;;;;;;;16.56;52.16;99099.06;4393582;32;34215;-73
2022/05/28 02:06:42;;;;;;;2.62;1.10;;;;;;;17.21;50.83;99097.34;4380595;32;34720;-72
2022/05/28 02:09:21;;;;;;;1.83;1.10;;;;;;;16.68;52.78;99102.06;4393280;32;35086;-72
2022/05/28 02:12:12;;;;;;;1.60;1.20;;;;;;;17.34;51.20;99098.53;4379917;32;34533;-73
2022/05/28 02:14:46;;;;;;;1.23;0.90;;;;;;;17.35;51.33;99099.41;4377999;32;34327;-72
2022/05/28 02:17:21;;;;;;;1.23;1.00;;;;;;;16.51;53.32;99122.03;4379931;32;34022;-73
2022/05/28 02:19:48;;;;;;;1.45;1.00;;;;;;;16.23;54.06;99115.19;4394097;32;34928;-72
2022/05/28 02:22:21;;;;;;;1.05;0.95;;;;;;;16.54;53.44;99093.03;4393242;32;35258;-73
2022/05/28 02:24:51;;;;;;;1.23;1.10;;;;;;;16.73;52.80;99095.75;4394354;32;34320;-72
2022/05/28 02:27:20;;;;;;;1.45;1.10;;;;;;;16.55;53.55;99102.59;4390472;32;34624;-72
2022/05/28 02:29:48;;;;;;;1.35;1.00;;;;;;;16.68;53.24;99106.47;4379435;32;35035;-72
2022/05/28 02:32:20;;;;;;;3.45;1.58;;;;;;;16.35;54.44;99114.72;4378118;32;34483;-72
2022/05/28 02:34:50;;;;;;;1.70;1.10;;;;;;;16.44;54.40;99113.53;4394043;32;33694;-72
2022/05/28 02:37:22;;;;;;;2.47;1.20;;;;;;;16.18;55.44;99111.88;4393148;32;33117;-72
2022/05/28 02:39:50;;;;;;;1.95;1.20;;;;;;;16.59;53.94;99125.22;4394101;32;35754;-72
2022/05/28 02:42:19;;;;;;;2.22;1.20;;;;;;;16.04;55.25;99118.53;4392020;32;34522;-72
2022/05/28 02:44:46;;;;;;;2.17;1.20;;;;;;;16.49;54.48;99119.47;4379902;32;33749;-72
2022/05/28 02:47:15;;;;;;;1.45;1.20;;;;;;;16.42;54.58;99108.31;4393152;32;34044;-73
2022/05/28 02:49:43;;;;;;;2.03;1.30;;;;;;;16.39;54.74;99111.06;4393487;32;35973;-72
2022/05/28 02:52:10;;;;;;;1.65;1.27;;;;;;;16.49;54.56;99116.84;4393886;32;34426;-72
2022/05/28 02:54:39;;;;;;;1.75;1.17;;;;;;;16.49;54.76;99112.44;4393866;32;34408;-73
2022/05/28 02:57:06;;;;;;;1.92;1.30;;;;;;;16.43;54.86;99109.19;4393128;32;33924;-72
2022/05/28 02:59:34;;;;;;;1.37;1.20;;;;;;;16.11;56.26;99106.88;4393066;32;35696;-72
2022/05/28 03:02:03;;;;;;;2.50;1.23;;;;;;;15.76;57.48;99107.28;4393903;32;34490;-72
2022/05/28 03:04:30;;;;;;;2.62;1.40;;;;;;;15.86;57.02;99106.03;4393004;32;33550;-72
2022/05/28 03:06:58;;;;;;;1.60;1.23;;;;;;;15.75;57.63;99100.34;4393265;32;34672;-73
2022/05/28 03:09:26;;;;;;;1.85;1.25;;;;;;;15.76;57.56;99096.78;4392783;32;35863;-72
2022/05/28 03:11:54;;;;;;;2.60;1.33;;;;;;;15.81;57.58;99090.47;4393657;32;34433;-72
2022/05/28 03:14:22;;;;;;;2.42;1.30;;;;;;;16.04;56.79;99091.38;4392905;32;34220;-72
2022/05/28 03:16:50;;;;;;;2.05;1.30;;;;;;;16.16;56.16;99088.28;4393739;32;33995;-72
2022/05/28 03:19:18;;;;;;;3.22;1.48;;;;;;;15.59;58.11;99095.59;4392716;32;35014;-72
2022/05/28 03:21:46;;;;;;;3.33;1.48;;;;;;;15.56;58.08;99098.31;4393661;32;35047;-72
2022/05/28 03:24:14;;;;;;;2.50;1.77;;;;;;;15.68;57.79;99095.25;4393383;32;32889;-72
2022/05/28 03:26:42;;;;;;;3.30;1.40;;;;;;;15.73;57.19;99088.06;4393912;32;33989;-73
2022/05/28 03:29:10;;;;;;;2.30;1.40;;;;;;;15.68;57.30;99090.00;4391884;32;35946;-73
2022/05/28 03:31:38;;;;;;;3.33;1.67;;;;;;;16.04;56.68;99092.25;4393697;32;34612;-72
2022/05/28 03:34:05;;;;;;;1.90;1.48;;;;;;;16.05;56.81;99093.09;4392461;32;33486;-73
2022/05/28 03:36:33;;;;;;;2.65;1.60;;;;;;;16.11;56.73;99084.97;4393709;32;33913;-71
2022/05/28 03:39:02;;;;;;;2.20;1.55;;;;;;;15.70;57.96;99088.19;4388114;32;35200;-82
2022/05/28 03:41:30;;;;;;;3.33;1.67;;;;;;;15.63;58.49;99093.72;4392743;32;35322;-79
2022/05/28 03:43:57;;;;;;;2.40;1.70;;;;;;;15.51;59.03;99097.62;4392491;32;33585;-82
2022/05/28 03:46:29;;;;;;;2.35;1.60;;;;;;;15.85;57.87;99104.34;4392478;32;34713;-83
2022/05/28 03:48:59;;;;;;;1.85;1.37;;;;;;;15.89;57.99;99108.56;4391632;32;35110;-82
2022/05/28 03:51:28;;;;;;;2.95;1.40;;;;;;;15.73;58.68;99108.22;4379822;32;35184;-72
2022/05/28 03:53:55;;;;;;;2.78;1.62;;;;;;;16.10;57.50;99117.44;4392262;32;34073;-72
2022/05/28 03:56:33;;;;;;;2.65;1.67;;;;;;;16.06;58.06;99106.19;4393331;32;33785;-73
2022/05/28 03:59:03;;;;;;;2.55;1.80;;;;;;;15.91;57.88;99098.84;4392208;32;35083;-71
2022/05/28 04:01:32;;;;;;;4.40;1.95;;;;;;;15.86;58.37;99091.12;4392360;32;34417;-72
2022/05/28 04:04:00;;;;;;;2.62;1.67;;;;;;;16.04;57.81;99096.63;4391198;32;33536;-83
2022/05/28 04:06:28;;;;;;;4.45;2.25;;;;;;;16.12;57.48;99090.19;4393089;32;33971;-71
2022/05/28 04:08:56;;;;;;;1.65;1.42;;;;;;;16.41;56.30;99095.25;4378775;32;35879;-81
2022/05/28 04:11:25;;;;;;;1.85;1.37;;;;;;;16.35;57.21;99088.47;4378897;32;34702;-79
2022/05/28 04:13:53;;;;;;;2.15;1.50;;;;;;;16.28;57.82;99093.09;4392267;32;34338;-73
2022/05/28 04:16:22;;;;;;;2.90;1.73;;;;;;;16.75;56.31;99100.06;4392234;32;34724;-72
2022/05/28 04:18:50;;;;;;;3.45;1.62;;;;;;;16.51;56.53;99108.91;4391340;32;34981;-72
2022/05/28 04:21:18;;;;;;;2.42;1.65;;;;;;;16.79;55.67;99096.38;4392133;32;34341;-72
2022/05/28 04:23:46;;;;;;;2.65;1.58;;;;;;;16.68;56.46;99093.31;4392522;32;34488;-78
2022/05/28 04:26:14;;;;;;;3.33;1.70;;;;;;;16.48;57.05;99097.59;4393037;32;33949;-80
2022/05/28 04:28:43;;;;;;;2.87;1.62;;;;;;;16.61;56.46;99087.44;4392124;32;35024;-72
2022/05/28 04:31:11;;;;;;;1.77;1.33;;;;;;;16.35;57.01;99091.09;4391603;32;34280;-72
2022/05/28 04:33:39;;;;;;;1.65;1.37;;;;;;;16.66;56.19;99093.37;4392055;32;33223;-82
2022/05/28 04:36:07;;;;;;;1.70;1.40;;;;;;;16.56;57.05;99089.41;4392172;32;34755;-82
2022/05/28 04:38:35;;;;;;;2.37;1.60;;;;;;;16.85;55.97;99095.28;4392681;32;35160;-76
2022/05/28 04:41:03;;;;;;;2.87;1.62;;;;;;;16.72;56.08;99094.06;4391670;32;35060;-76
2022/05/28 04:43:31;;;;;;;2.08;1.30;;;;;;;16.50;57.42;99100.16;4391942;32;32993;-72
2022/05/28 04:45:59;;;;;;;2.45;1.27;;;;;;;16.45;57.06;99108.22;4392774;32;33890;-75
2022/05/28 04:48:28;;;;;;;2.12;1.50;;;;;;;16.20;58.26;99099.53;4366095;32;35968;-76
2022/05/28 04:50:55;;;;;;;2.33;1.37;;;;;;;16.58;56.24;99103.34;4392770;32;34435;-74
2022/05/28 04:53:23;;;;;;;2.53;1.62;;;;;;;16.54;56.36;99101.75;4391235;32;34293;-72
2022/05/28 04:55:52;;;;;;;2.08;1.30;;;;;;;16.39;56.88;99108.44;4392189;32;33808;-72
2022/05/28 04:58:19;;;;;;;1.70;1.45;;;;;;;16.40;57.20;99111.94;4391907;32;35148;-72
2022/05/28 05:00:48;;;;;;;2.97;1.77;;;;;;;16.39;57.30;99102.34;4392746;32;34524;-71
2022/05/28 05:03:16;;;;;;;3.75;1.60;;;;;;;16.24;57.66;99101.16;4392029;32;33469;-71
2022/05/28 05:05:44;;;;;;;5.10;2.45;;;;;;;16.37;57.22;99114.69;4391897;32;34047;-72
2022/05/28 05:08:12;;;;;;;2.42;1.42;;;;;;;16.26;57.99;99118.56;4391988;32;35876;-71
2022/05/28 05:10:40;;;;;;;2.47;1.60;;;;;;;16.36;57.13;99126.09;4392513;32;35113;-71
2022/05/28 05:13:08;;;;;;;2.75;1.52;;;;;;;16.56;56.34;99115.69;4391828;32;34511;-72
2022/05/28 05:15:37;;;;;;;4.72;1.40;;;;;;;16.64;56.61;99107.50;4391105;32;34662;-71
2022/05/28 05:18:06;;;;;;;2.00;1.42;;;;;;;16.47;57.40;99106.38;4391645;32;34324;-72
2022/05/28 05:20:33;;;;;;;5.12;1.80;;;;;;;16.73;56.79;99106.28;4392509;32;34491;-71
2022/05/28 05:23:01;;;;;;;1.95;1.50;;;;;;;16.65;56.92;99103.97;4391192;32;33371;-72
2022/05/28 05:25:30;;;;;;;3.70;1.25;;;;;;;16.68;57.13;99107.31;4392566;32;34049;-72
2022/05/28 05:27:58;;;;;;;2.65;1.67;;;;;;;17.00;56.76;99104.34;4391516;32;35101;-85
2022/05/28 05:30:26;;;;;;;4.45;1.50;;;;;;;16.92;56.11;99109.06;4392217;32;33713;-72
2022/05/28 05:32:55;;;;;;;4.15;1.58;;;;;;;16.58;57.39;99107.75;4392377;32;33363;-71
2022/05/28 05:35:23;;;;;;;2.87;1.52;;;;;;;16.66;57.97;99116.19;4390798;32;32110;-71
2022/05/28 05:37:51;;;;;;;3.92;1.77;;;;;;;16.79;57.39;99116.56;4391358;32;36000;-72
2022/05/28 05:40:19;;;;;;;3.92;1.80;;;;;;;16.95;56.47;99119.47;4377739;32;35060;-71
2022/05/28 05:42:47;;;;;;;3.50;1.60;;;;;;;16.93;57.06;99118.69;4392295;32;33435;-71
2022/05/28 05:45:15;;;;;;;2.60;1.73;;;;;;;17.11;56.05;99123.16;4391523;32;34613;-72
2022/05/28 05:47:43;;;;;;;2.40;1.58;;;;;;;17.11;56.33;99125.81;4392091;32;35051;-71
2022/05/28 05:50:11;;;;;;;2.05;1.40;;;;;;;17.20;55.60;99120.16;4391795;32;34446;-71
2022/05/28 05:52:40;;;;;;;2.25;1.52;;;;;;;17.23;55.69;99127.09;4391214;32;33477;-71
2022/05/28 05:55:16;;;;;;;2.40;1.48;;;;;;;17.50;55.30;99117.16;4391133;32;33913;-72
2022/05/28 05:57:44;;;;;;;4.30;1.60;;;;;;;17.52;55.66;99112.69;4390905;32;35157;-75
2022/05/28 06:00:12;;;;;;;3.97;2.00;;;;;;;17.23;57.25;99108.66;4391031;32;34412;-72
2022/05/28 06:02:40;;;;;;;2.50;1.73;;;;;;;17.54;55.53;99116.13;4378476;32;34346;-73
2022/05/28 06:05:08;;;;;;;2.97;1.60;;;;;;;17.57;54.95;99115.13;4390820;32;33762;-73
2022/05/28 06:07:38;;;;;;;2.55;1.77;;;;;;;17.91;55.07;99111.03;4393186;32;34786;-72
2022/05/28 06:10:09;;;;;;;2.87;1.75;;;;;;;18.11;53.99;99102.25;4393338;32;33733;-72
2022/05/28 06:12:37;;;;;;;2.83;1.60;;;;;;;18.08;54.47;99102.37;4393451;32;33491;-72
2022/05/28 06:15:05;;;;;;;1.87;1.48;;;;;;;18.23;52.56;99106.97;4393581;32;34002;-73
2022/05/28 06:17:34;;;;;;;3.15;1.40;;;;;;;18.38;52.11;99119.41;4380979;32;35878;-79
2022/05/28 06:20:04;;;;;;;2.83;1.58;;;;;;;19.09;52.25;99116.06;4393387;32;34392;-72
2022/05/28 06:22:32;;;;;;;4.80;1.50;;;;;;;19.65;51.17;99113.31;4393530;32;33510;-83
2022/05/28 06:25:00;;;;;;;2.08;1.50;;;;;;;19.30;49.08;99114.16;4393084;32;33897;-73
2022/05/28 06:27:28;;;;;;;2.58;1.50;;;;;;;19.36;47.73;99102.44;4392908;32;35038;-72
2022/05/28 06:29:56;;;;;;;2.80;1.60;;;;;;;19.52;48.34;99110.44;4390806;32;34423;-71
2022/05/28 06:32:24;;;;;;;4.47;1.40;;;;;;;19.81;48.08;99108.09;4394087;32;34205;-73
2022/05/28 06:34:54;;;;;;;2.65;1.42;;;;;;;19.73;47.93;99116.41;4392205;32;33932;-72
2022/05/28 06:37:22;;;;;;;2.90;1.58;;;;;;;19.51;49.85;99117.50;4392803;32;34935;-72
2022/05/28 06:39:50;;;;;;;3.70;1.50;;;;;;;19.98;47.64;99107.22;4392214;32;35219;-71
2022/05/28 06:42:18;;;;;;;3.17;1.60;;;;;;;19.55;48.09;99112.06;4393786;32;33383;-72
2022/05/28 06:44:46;;;;;;;2.55;1.48;;;;;;;19.31;49.82;99115.88;4393078;32;34687;-71
2022/05/28 06:47:14;;;;;;;2.17;1.52;;;;;;;19.70;49.60;99108.63;4392432;32;35774;-71
2022/05/28 06:49:42;;;;;;;2.45;1.30;;;;;;;19.96;47.77;99111.72;4392544;32;34622;-70
2022/05/28 06:52:10;;;;;;;2.30;1.42;;;;;;;20.10;48.39;99113.62;4393776;32;34542;-70
2022/05/28 06:54:38;;;;;;;4.30;1.30;;;;;;;19.23;49.15;99109.25;4392773;32;33939;-71
2022/05/28 06:57:05;;;;;;;1.70;1.33;;;;;;;19.14;48.04;99106.16;4392351;32;36003;-86
2022/05/28 06:59:33;;;;;;;7.03;1.85;;;;;;;20.06;47.51;99118.22;4392840;32;34851;-79
2022/05/28 07:02:01;;;;;;;3.12;1.52;;;;;;;19.68;47.20;99129.00;4393829;32;33357;-71
2022/05/28 07:04:29;;;;;;;4.20;1.60;;;;;;;18.87;49.49;99128.62;4392734;32;33843;-71
2022/05/28 07:06:58;;;;;;;2.35;1.52;;;;;;;18.31;50.73;99125.91;4394062;32;35098;-80
2022/05/28 07:09:26;;;;;;;3.37;1.40;;;;;;;18.83;50.05;99134.97;4392867;32;34540;-71
2022/05/28 07:11:54;;;;;;;4.78;1.73;;;;;;;18.72;50.37;99144.22;4394056;32;34114;-72
2022/05/28 07:14:22;;;;;;;2.92;1.67;;;;;;;19.46;48.52;99135.34;4391574;32;33894;-71
2022/05/28 07:16:50;;;;;;;2.55;1.40;;;;;;;19.48;49.30;99141.44;4392275;32;35083;-71
2022/05/28 07:19:18;;;;;;;2.53;1.58;;;;;;;19.20;48.98;99149.00;4392858;32;34415;-71
2022/05/28 07:21:45;;;;;;;1.90;1.30;;;;;;;18.86;49.63;99140.94;4393801;32;34208;-71
2022/05/28 07:24:14;;;;;;;3.87;1.92;;;;;;;19.08;49.40;99151.31;4392759;32;33965;-71
2022/05/28 07:26:41;;;;;;;4.10;1.52;;;;;;;19.25;48.93;99152.28;4393586;32;35144;-72
2022/05/28 07:29:09;;;;;;;2.62;1.40;;;;;;;19.13;50.52;99149.31;4392735;32;35001;-85
2022/05/28 07:31:37;;;;;;;5.80;1.80;;;;;;;19.24;48.17;99155.87;4392969;32;33457;-71
2022/05/28 07:34:05;;;;;;;4.53;1.50;;;;;;;19.21;48.82;99162.13;4392487;32;34744;-72
2022/05/28 07:36:35;;;;;;;1.92;1.33;;;;;;;19.41;47.67;99162.94;4393634;32;35015;-71
2022/05/28 07:39:03;;;;;;;2.83;1.30;;;;;;;19.72;45.42;99162.25;4392563;32;35355;-71
2022/05/28 07:41:32;;;;;;;3.80;1.58;;;;;;;20.00;45.79;99166.12;4380157;32;33634;-71
2022/05/28 07:44:00;;;;;;;1.77;1.17;;;;;;;19.52;47.18;99169.38;4392740;32;33796;-71
2022/05/28 07:46:31;;;;;;;4.22;1.73;;;;;;;19.70;48.19;99170.25;4393553;32;35130;-71
2022/05/28 07:49:00;;;;;;;4.18;1.48;;;;;;;19.00;47.26;99164.03;4379040;32;33706;-84
2022/05/28 07:51:35;;;;;;;4.68;1.67;;;;;;;19.24;49.54;99166.44;4394091;32;33610;-71
2022/05/28 07:54:05;;;;;;;3.53;1.30;;;;;;;19.38;48.76;99174.50;4379074;32;33077;-74
2022/05/28 07:56:33;;;;;;;6.57;1.62;;;;;;;19.56;48.40;99172.72;4378358;32;34771;-71
2022/05/28 07:59:01;;;;;;;3.08;1.48;;;;;;;19.44;46.32;99173.34;4379986;32;34365;-71
2022/05/28 08:01:30;;;;;;;5.12;1.67;;;;;;;19.50;47.24;99173.03;4392431;32;33409;-71
2022/05/28 08:04:07;;;;;;;3.72;1.60;;;;;;;19.81;46.22;99175.00;4392558;32;33813;-71
2022/05/28 08:06:36;;;;;;;4.25;1.45;;;;;;;19.39;47.12;99176.19;4393309;32;35132;-71
2022/05/28 08:09:05;;;;;;;3.95;1.77;;;;;;;19.51;46.62;99164.19;4392341;32;35307;-71
2022/05/28 08:11:33;;;;;;;4.60;2.00;;;;;;;19.31;47.41;99167.81;4379113;32;33452;-71
2022/05/28 08:14:01;;;;;;;4.65;1.50;;;;;;;19.25;47.12;99168.13;4392850;32;33850;-71
2022/05/28 08:16:33;;;;;;;2.50;1.70;;;;;;;20.49;44.70;99158.22;4380489;32;35144;-72
2022/05/28 08:19:02;;;;;;;5.43;2.50;;;;;;;19.85;45.08;99160.72;4391530;32;34500;-71
2022/05/28 08:24:16;;;;;;;2.62;1.60;;;;;;;20.69;42.71;99169.53;4392356;32;33983;-71
2022/05/28 08:26:44;;;;;;;3.70;1.67;;;;;;;19.86;44.18;99178.25;4392237;32;35791;-83
2022/05/28 08:29:12;;;;;;;2.20;1.37;;;;;;;19.84;43.45;99182.78;4391210;32;35160;-71
2022/05/28 08:31:41;;;;;;;3.25;1.52;;;;;;;20.52;41.81;99173.91;4393196;32;33656;-71
2022/05/28 08:34:09;;;;;;;5.30;1.55;;;;;;;21.55;41.11;99183.22;4391160;32;34870;-70
2022/05/28 08:36:36;;;;;;;4.68;1.50;;;;;;;21.47;41.04;99172.22;4393040;32;36023;-71
2022/05/28 08:39:05;;;;;;;5.20;1.70;;;;;;;21.59;42.19;99174.16;4392387;32;34428;-71
2022/05/28 08:41:44;;;;;;;5.07;1.70;;;;;;;21.16;45.10;99173.94;4393411;32;33551;-71
2022/05/28 08:44:21;;;;;;;3.22;1.25;;;;;;;20.48;41.75;99171.53;4378486;32;34646;-71
2022/05/28 08:46:53;;;;;;;2.37;1.35;;;;;;;21.46;41.10;99170.50;4379500;32;35360;-71
2022/05/28 08:49:27;;;;;;;4.70;1.60;;;;;;;21.34;39.27;99172.91;4378399;32;35325;-83
2022/05/28 08:52:06;;;;;;;4.60;2.05;;;;;;;21.16;39.91;99173.94;4392602;32;33528;-71
2022/05/28 08:54:56;;;;;;;4.55;1.83;;;;;;;21.68;38.61;99170.94;4391837;32;34054;-76
2022/05/28 08:57:38;;;;;;;3.53;1.58;;;;;;;21.91;37.39;99161.63;4391730;32;35841;-71
2022/05/28 09:00:13;;;;;;;5.97;1.85;;;;;;;21.22;38.20;99168.31;4378296;32;34341;-83
2022/05/28 09:02:44;;;;;;;3.90;1.62;;;;;;;21.34;40.46;99172.91;4391117;32;33445;-84
2022/05/28 09:05:28;;;;;;;2.53;1.50;;;;;;;20.55;41.44;99173.75;4384452;32;34823;-71
2022/05/28 09:08:02;;;;;;;4.50;1.85;;;;;;;20.69;41.25;99165.09;4392730;32;34958;-83
2022/05/28 09:10:41;;;;;;;2.65;1.60;;;;;;;20.83;41.36;99164.34;4391814;32;34390;-71
2022/05/28 09:13:21;;;;;;;4.03;1.25;;;;;;;20.95;42.62;99149.56;4391482;32;33501;-71
2022/05/28 09:15:49;;;;;;;12.90;1.95;;;;;;;21.69;38.72;99140.00;4390608;32;33956;-71
2022/05/28 09:18:18;;;;;;;6.62;1.80;;;;;;;21.52;38.72;99148.97;4389905;32;35057;-71
2022/05/28 09:20:48;;;;;;;6.12;1.75;;;;;;;21.98;39.78;99150.66;4377902;32;35272;-71
2022/05/28 09:23:16;;;;;;;3.75;1.48;;;;;;;21.71;38.63;99154.87;4391889;32;33618;-71
2022/05/28 09:25:46;;;;;;;4.03;1.83;;;;;;;21.14;41.00;99154.66;4391839;32;34659;-72
2022/05/28 09:28:47;;;;;;;3.20;1.45;;;;;;;20.50;42.22;99159.06;4391287;32;35100;-72
2022/05/28 09:31:41;;;;;;;3.20;1.85;;;;;;;21.10;41.87;99156.63;4377956;32;34338;-71
2022/05/28 09:34:48;;;;;;;3.05;1.62;;;;;;;20.52;41.82;99149.25;4378242;32;33420;-83
2022/05/28 09:37:38;;;;;;;6.18;1.90;;;;;;;20.67;43.99;99156.41;4378617;32;34739;-71
2022/05/28 09:40:26;;;;;;;5.20;1.95;;;;;;;20.61;41.91;99157.59;4393147;32;34981;-71
2022/05/28 09:43:06;;;;;;;4.45;2.03;;;;;;;20.38;43.62;99160.59;4381022;32;33933;-72
2022/05/28 09:45:50;;;;;;;6.25;1.92;;;;;;;21.51;40.78;99168.44;4393545;32;33461;-71
2022/05/28 09:48:21;;;;;;;5.80;1.95;;;;;;;20.16;42.82;99161.75;4393205;32;34626;-72
2022/05/28 09:50:49;;;;;;;6.80;1.92;;;;;;;20.94;44.68;99167.22;4393135;32;35985;-75
2022/05/28 09:56:36;;;;;;;6.47;2.20;;;;;;;21.04;43.40;99169.38;4393647;32;34284;-71
2022/05/28 09:59:06;;;;;;;4.45;1.80;;;;;;;20.98;42.45;99166.12;4394294;32;34067;-71
2022/05/28 10:01:34;;;;;;;3.53;1.90;;;;;;;21.06;43.34;99167.47;4392246;32;35993;-71
2022/05/28 10:06:53;;;;;;;3.97;2.20;;;;;;;21.26;41.94;99167.19;4390872;32;33811;-72
2022/05/28 10:09:33;;;;;;;7.65;2.03;;;;;;;21.76;40.52;99151.97;4393080;32;33934;-80
2022/05/28 10:12:12;;;;;;;9.85;3.00;;;;;;;21.61;42.17;99148.41;4384886;32;36132;-71
2022/05/28 10:14:41;;;;;;;6.80;1.85;;;;;;;21.77;42.69;99149.19;4393727;32;35328;-71
2022/05/28 10:17:22;;;;;;;5.15;2.30;;;;;;;22.75;40.30;99146.75;4393137;32;34678;-70
2022/05/28 10:19:55;;;;;;;6.03;1.90;;;;;;;23.20;39.45;99147.37;4379945;32;34799;-72
2022/05/28 10:22:25;;;;;;;13.02;1.83;;;;;;;22.71;39.80;99140.78;4392596;32;35859;-71
2022/05/28 10:24:57;;;;;;;2.90;1.65;;;;;;;22.62;40.13;99135.19;4379740;32;33675;-72
2022/05/28 10:27:47;;;;;;;3.05;2.00;;;;;;;23.17;36.69;99131.66;4394208;32;33614;-71
2022/05/28 10:30:27;;;;;;;6.15;2.37;;;;;;;21.93;40.69;99132.37;4378726;32;31849;-71
2022/05/28 10:32:55;;;;;;;5.97;2.08;;;;;;;22.29;38.23;99128.44;4394048;32;35092;-76
2022/05/28 10:35:27;;;;;;;3.60;1.92;;;;;;;22.29;39.16;99133.75;4393315;32;35325;-71
2022/05/28 10:38:10;;;;;;;4.97;1.87;;;;;;;21.52;38.53;99128.59;4380819;32;33306;-71
2022/05/28 10:40:54;;;;;;;5.32;1.87;;;;;;;21.95;37.99;99134.00;4391188;32;33933;-72
2022/05/28 10:43:31;;;;;;;3.92;1.62;;;;;;;21.70;37.71;99121.34;4394000;32;36001;-71
2022/05/28 10:46:34;;;;;;;9.82;2.30;;;;;;;21.68;40.53;99117.94;4393062;32;34449;-71
2022/05/28 10:49:26;;;;;;;5.93;1.50;;;;;;;21.89;37.76;99120.25;4393155;32;33557;-72
2022/05/28 10:52:17;;;;;;;3.28;1.50;;;;;;;22.73;36.93;99127.41;4392224;32;34852;-71
2022/05/28 10:55:05;;;;;;;6.15;2.08;;;;;;;22.37;37.40;99134.09;4393000;32;35940;-73
2022/05/28 10:57:52;;;;;;;5.75;1.65;;;;;;;22.59;34.77;99115.03;4392988;32;34379;-84
2022/05/28 11:00:29;;;;;;;5.95;1.70;;;;;;;21.65;35.77;99111.97;4393018;32;33432;-72
2022/05/28 11:03:16;;;;;;;4.50;1.85;;;;;;;22.63;35.04;99121.00;4379691;32;34576;-72
2022/05/28 11:06:08;;;;;;;3.12;1.42;;;;;;;21.73;36.71;99115.88;4393224;32;35993;-85
2022/05/28 11:09:05;;;;;;;2.47;1.50;;;;;;;22.18;34.68;99113.12;4393728;32;34442;-71
2022/05/28 11:11:44;;;;;;;1.92;1.30;;;;;;;22.39;34.93;99108.31;4392351;32;33721;-72
2022/05/28 11:14:30;;;;;;;9.88;1.42;;;;;;;21.47;36.15;99113.94;4379530;32;34047;-72
2022/05/28 11:16:58;;;;;;;4.93;1.45;;;;;;;21.84;32.79;99111.72;4392932;32;35936;-71
2022/05/28 11:19:32;;;;;;;4.22;1.50;;;;;;;21.24;34.96;99112.59;4393805;32;34427;-72
2022/05/28 11:22:22;;;;;;;4.05;1.50;;;;;;;21.30;35.89;99094.56;4378861;32;34137;-72
2022/05/28 11:25:05;;;;;;;3.60;1.50;;;;;;;21.99;34.21;99104.63;4393165;32;33959;-84
2022/05/28 11:27:51;;;;;;;3.80;1.75;;;;;;;21.96;32.68;99106.53;4378644;32;35012;-71
2022/05/28 11:30:24;;;;;;;;;;;;;;;22.68;37.01;99103.81;4385693;32;34538;-84
2022/05/28 11:33:04;;;;;;;2.75;1.25;;;;;;;23.19;36.40;99097.88;4363792;32;177370;-70
2022/05/28 11:35:42;;;;;;;3.50;1.20;;;;;;;23.40;31.48;99087.63;4382189;32;34088;-70
2022/05/28 11:38:20;;;;;;;3.17;1.52;;;;;;;22.86;33.19;99088.50;4379774;32;35430;-79
2022/05/28 11:41:17;;;;;;;3.67;1.80;;;;;;;22.79;31.64;99084.53;4378934;32;34859;-70
2022/05/28 11:43:53;;;;;;;2.70;1.40;;;;;;;22.77;31.83;99097.06;4393611;32;34185;-69
2022/05/28 11:46:32;;;;;;;2.80;1.62;;;;;;;22.00;33.26;99090.44;4392991;32;34776;-70
2022/05/28 11:52:08;;;;;;;4.57;1.52;;;;;;;21.85;33.77;99078.97;4392725;32;35561;-86
2022/05/28 11:55:06;;;;;;;4.65;1.17;;;;;;;21.46;35.99;99076.00;4392326;32;32953;-71
2022/05/28 11:57:55;;;;;;;4.78;1.75;;;;;;;22.24;35.78;99074.78;4389763;32;33915;-70
2022/05/28 12:00:25;;;;;;;7.00;1.95;;;;;;;21.93;35.99;99071.37;4379022;32;35031;-76
2022/05/28 12:03:20;;;;;;;3.28;1.42;;;;;;;21.46;35.57;99069.84;4392364;32;33552;-72
2022/05/28 12:05:53;;;;;;;3.00;1.50;;;;;;;20.86;34.28;99071.53;4392180;32;34301;-73
2022/05/28 12:09:03;;;;;;;5.12;1.50;;;;;;;20.69;37.41;99071.66;4392403;32;33927;-73
2022/05/28 12:11:59;;;;;;;2.95;1.17;;;;;;;21.02;33.40;99061.75;4391962;32;35991;-72